sensor_id;sensor_type;location;lat;lon;timestamp;pressure;altitude;pressure_sealevel;temperature;humidity
86204;BME280;76856;42.356;24.732;2024-03-25T00:00:16;97479.75;;;13.02;61.52
86204;BME280;76856;42.356;24.732;2024-03-25T00:02:43;97479.84;;;13.07;62.04
86204;BME280;76856;42.356;24.732;2024-03-25T00:05:09;97473.66;;;13.14;61.95
86204;BME280;76856;42.356;24.732;2024-03-25T00:07:36;97464.53;;;13.21;61.50
86204;BME280;76856;42.356;24.732;2024-03-25T00:10:02;97464.31;;;13.23;61.18
86204;BME280;76856;42.356;24.732;2024-03-25T00:12:27;97460.19;;;13.27;61.41
86204;BME280;76856;42.356;24.732;2024-03-25T00:14:53;97455.59;;;13.34;61.10
86204;BME280;76856;42.356;24.732;2024-03-25T00:17:19;97452.81;;;13.29;61.39
86204;BME280;76856;42.356;24.732;2024-03-25T00:19:47;97448.28;;;13.29;61.29
86204;BME280;76856;42.356;24.732;2024-03-25T00:22:20;97447.50;;;13.29;61.82
86204;BME280;76856;42.356;24.732;2024-03-25T00:24:46;97455.78;;;13.33;61.21
86204;BME280;76856;42.356;24.732;2024-03-25T00:27:15;97454.28;;;13.25;61.10
86204;BME280;76856;42.356;24.732;2024-03-25T00:29:41;97443.06;;;13.11;62.28
86204;BME280;76856;42.356;24.732;2024-03-25T00:32:07;97444.94;;;13.11;61.77
86204;BME280;76856;42.356;24.732;2024-03-25T00:34:33;97445.25;;;13.02;61.89
86204;BME280;76856;42.356;24.732;2024-03-25T00:36:59;97450.09;;;13.05;62.41
86204;BME280;76856;42.356;24.732;2024-03-25T00:39:25;97439.03;;;13.08;62.24
86204;BME280;76856;42.356;24.732;2024-03-25T00:41:52;97443.63;;;13.01;62.39
86204;BME280;76856;42.356;24.732;2024-03-25T00:44:18;97435.78;;;13.06;62.64
86204;BME280;76856;42.356;24.732;2024-03-25T00:46:44;97438.31;;;13.01;62.71
86204;BME280;76856;42.356;24.732;2024-03-25T00:49:10;97425.03;;;13.01;62.79
86204;BME280;76856;42.356;24.732;2024-03-25T00:51:36;97428.63;;;13.07;62.28
86204;BME280;76856;42.356;24.732;2024-03-25T00:54:02;97438.44;;;13.06;62.28
86204;BME280;76856;42.356;24.732;2024-03-25T00:56:29;97445.25;;;13.02;62.97
86204;BME280;76856;42.356;24.732;2024-03-25T00:58:55;97464.84;;;13.01;62.37
86204;BME280;76856;42.356;24.732;2024-03-25T01:01:22;97462.28;;;12.83;62.72
86204;BME280;76856;42.356;24.732;2024-03-25T01:03:48;97472.19;;;12.46;63.20
86204;BME280;76856;42.356;24.732;2024-03-25T01:06:14;97481.47;;;12.36;63.86
86204;BME280;76856;42.356;24.732;2024-03-25T01:08:39;97495.09;;;12.40;63.79
86204;BME280;76856;42.356;24.732;2024-03-25T01:11:05;97501.72;;;12.31;64.73
86204;BME280;76856;42.356;24.732;2024-03-25T01:13:31;97501.06;;;12.17;65.32
86204;BME280;76856;42.356;24.732;2024-03-25T01:15:57;97532.94;;;12.10;65.79
86204;BME280;76856;42.356;24.732;2024-03-25T01:18:22;97548.59;;;11.93;67.41
86204;BME280;76856;42.356;24.732;2024-03-25T01:20:48;97561.06;;;11.61;66.37
86204;BME280;76856;42.356;24.732;2024-03-25T01:23:15;97570.81;;;11.42;63.70
86204;BME280;76856;42.356;24.732;2024-03-25T01:25:41;97552.81;;;11.26;61.75
86204;BME280;76856;42.356;24.732;2024-03-25T01:28:06;97568.81;;;11.06;63.61
86204;BME280;76856;42.356;24.732;2024-03-25T01:30:32;97578.63;;;10.92;66.51
86204;BME280;76856;42.356;24.732;2024-03-25T01:33:01;97568.59;;;10.76;70.07
86204;BME280;76856;42.356;24.732;2024-03-25T01:35:26;97571.69;;;10.53;72.07
86204;BME280;76856;42.356;24.732;2024-03-25T01:37:52;97581.69;;;10.44;73.57
86204;BME280;76856;42.356;24.732;2024-03-25T01:40:18;97574.41;;;10.33;74.59
86204;BME280;76856;42.356;24.732;2024-03-25T01:42:54;97585.41;;;10.23;74.60
86204;BME280;76856;42.356;24.732;2024-03-25T01:45:20;97585.63;;;10.22;75.68
86204;BME280;76856;42.356;24.732;2024-03-25T01:47:45;97574.03;;;10.23;76.00
86204;BME280;76856;42.356;24.732;2024-03-25T01:50:11;97565.53;;;10.27;75.09
86204;BME280;76856;42.356;24.732;2024-03-25T01:52:37;97564.06;;;10.18;75.11
86204;BME280;76856;42.356;24.732;2024-03-25T01:55:04;97559.81;;;10.17;76.04
86204;BME280;76856;42.356;24.732;2024-03-25T01:57:30;97557.59;;;10.14;76.76
86204;BME280;76856;42.356;24.732;2024-03-25T01:59:56;97555.56;;;10.16;76.49
86204;BME280;76856;42.356;24.732;2024-03-25T02:02:23;97550.28;;;10.16;76.63
86204;BME280;76856;42.356;24.732;2024-03-25T02:04:49;97549.25;;;10.17;76.13
86204;BME280;76856;42.356;24.732;2024-03-25T02:07:16;97549.22;;;10.24;76.63
86204;BME280;76856;42.356;24.732;2024-03-25T02:09:42;97555.94;;;10.26;77.06
86204;BME280;76856;42.356;24.732;2024-03-25T02:12:08;97560.63;;;10.31;77.55
86204;BME280;76856;42.356;24.732;2024-03-25T02:14:35;97574.81;;;10.43;76.98
86204;BME280;76856;42.356;24.732;2024-03-25T02:17:01;97598.38;;;10.45;76.72
86204;BME280;76856;42.356;24.732;2024-03-25T02:19:28;97601.47;;;10.28;77.14
86204;BME280;76856;42.356;24.732;2024-03-25T02:21:54;97590.69;;;10.10;77.17
86204;BME280;76856;42.356;24.732;2024-03-25T02:24:20;97601.47;;;10.08;77.17
86204;BME280;76856;42.356;24.732;2024-03-25T02:26:47;97604.13;;;10.02;77.90
86204;BME280;76856;42.356;24.732;2024-03-25T02:29:13;97598.88;;;9.88;76.54
86204;BME280;76856;42.356;24.732;2024-03-25T02:31:38;97613.50;;;9.84;76.08
86204;BME280;76856;42.356;24.732;2024-03-25T02:34:04;97618.78;;;9.71;75.75
86204;BME280;76856;42.356;24.732;2024-03-25T02:36:29;97612.25;;;9.47;76.22
86204;BME280;76856;42.356;24.732;2024-03-25T02:38:55;97612.66;;;9.44;77.13
86204;BME280;76856;42.356;24.732;2024-03-25T02:41:21;97605.75;;;9.43;76.10
86204;BME280;76856;42.356;24.732;2024-03-25T02:43:49;97618.34;;;9.54;76.27
86204;BME280;76856;42.356;24.732;2024-03-25T02:46:15;97608.63;;;9.55;76.53
86204;BME280;76856;42.356;24.732;2024-03-25T02:48:41;97631.53;;;9.61;76.98
86204;BME280;76856;42.356;24.732;2024-03-25T02:51:06;97639.69;;;9.59;75.40
86204;BME280;76856;42.356;24.732;2024-03-25T02:53:32;97630.56;;;9.62;75.25
86204;BME280;76856;42.356;24.732;2024-03-25T02:55:57;97633.78;;;9.64;76.75
86204;BME280;76856;42.356;24.732;2024-03-25T02:58:23;97635.00;;;9.55;75.51
86204;BME280;76856;42.356;24.732;2024-03-25T03:00:48;97637.03;;;9.59;75.61
86204;BME280;76856;42.356;24.732;2024-03-25T03:03:14;97636.63;;;9.56;74.96
86204;BME280;76856;42.356;24.732;2024-03-25T03:05:39;97645.53;;;9.55;74.72
86204;BME280;76856;42.356;24.732;2024-03-25T03:08:05;97635.78;;;9.55;75.72
86204;BME280;76856;42.356;24.732;2024-03-25T03:10:31;97635.41;;;9.45;73.21
86204;BME280;76856;42.356;24.732;2024-03-25T03:12:57;97638.22;;;9.30;72.86
86204;BME280;76856;42.356;24.732;2024-03-25T03:15:22;97649.16;;;9.27;73.72
86204;BME280;76856;42.356;24.732;2024-03-25T03:17:48;97635.38;;;9.25;71.67
86204;BME280;76856;42.356;24.732;2024-03-25T03:20:13;97628.03;;;9.14;73.08
86204;BME280;76856;42.356;24.732;2024-03-25T03:22:39;97631.25;;;9.09;73.33
86204;BME280;76856;42.356;24.732;2024-03-25T03:25:05;97633.25;;;9.00;72.68
86204;BME280;76856;42.356;24.732;2024-03-25T03:27:30;97629.59;;;8.88;72.62
86204;BME280;76856;42.356;24.732;2024-03-25T03:29:56;97620.44;;;8.84;72.96
86204;BME280;76856;42.356;24.732;2024-03-25T03:32:22;97624.88;;;8.77;73.49
86204;BME280;76856;42.356;24.732;2024-03-25T03:34:47;97629.09;;;8.65;73.61
86204;BME280;76856;42.356;24.732;2024-03-25T03:37:13;97632.13;;;8.62;73.75
86204;BME280;76856;42.356;24.732;2024-03-25T03:39:39;97630.28;;;8.62;73.44
86204;BME280;76856;42.356;24.732;2024-03-25T03:42:04;97629.88;;;8.59;74.19
86204;BME280;76856;42.356;24.732;2024-03-25T03:44:30;97622.97;;;8.57;73.90
86204;BME280;76856;42.356;24.732;2024-03-25T03:46:55;97619.13;;;8.60;74.06
86204;BME280;76856;42.356;24.732;2024-03-25T03:49:21;97621.59;;;8.62;73.81
86204;BME280;76856;42.356;24.732;2024-03-25T03:51:46;97622.97;;;8.57;74.20
86204;BME280;76856;42.356;24.732;2024-03-25T03:54:12;97619.91;;;8.47;73.19
86204;BME280;76856;42.356;24.732;2024-03-25T03:56:37;97626.13;;;8.40;73.46
86204;BME280;76856;42.356;24.732;2024-03-25T03:59:03;97623.91;;;8.43;74.66
86204;BME280;76856;42.356;24.732;2024-03-25T04:01:29;97635.06;;;8.45;74.70
86204;BME280;76856;42.356;24.732;2024-03-25T04:03:55;97634.28;;;8.51;73.85
86204;BME280;76856;42.356;24.732;2024-03-25T04:06:20;97634.09;;;8.53;74.10
86204;BME280;76856;42.356;24.732;2024-03-25T04:08:46;97642.66;;;8.62;74.20
86204;BME280;76856;42.356;24.732;2024-03-25T04:11:11;97642.06;;;8.66;73.31
86204;BME280;76856;42.356;24.732;2024-03-25T04:13:37;97644.13;;;8.77;73.51
86204;BME280;76856;42.356;24.732;2024-03-25T04:16:04;97653.84;;;8.77;73.58
86204;BME280;76856;42.356;24.732;2024-03-25T04:18:31;97657.94;;;8.86;73.99
86204;BME280;76856;42.356;24.732;2024-03-25T04:20:58;97660.19;;;8.89;73.22
86204;BME280;76856;42.356;24.732;2024-03-25T04:23:24;97667.28;;;8.89;72.98
86204;BME280;76856;42.356;24.732;2024-03-25T04:25:50;97670.94;;;8.94;72.41
86204;BME280;76856;42.356;24.732;2024-03-25T04:28:16;97673.53;;;8.81;71.89
86204;BME280;76856;42.356;24.732;2024-03-25T04:30:41;97670.88;;;8.81;72.63
86204;BME280;76856;42.356;24.732;2024-03-25T04:33:07;97664.78;;;8.74;72.76
86204;BME280;76856;42.356;24.732;2024-03-25T04:35:34;97661.28;;;8.67;72.88
86204;BME280;76856;42.356;24.732;2024-03-25T04:37:59;97658.63;;;8.60;73.33
86204;BME280;76856;42.356;24.732;2024-03-25T04:40:25;97663.88;;;8.53;74.10
86204;BME280;76856;42.356;24.732;2024-03-25T04:42:51;97678.44;;;8.49;75.20
86204;BME280;76856;42.356;24.732;2024-03-25T04:45:16;97684.72;;;8.48;76.39
86204;BME280;76856;42.356;24.732;2024-03-25T04:47:42;97686.16;;;8.51;76.82
86204;BME280;76856;42.356;24.732;2024-03-25T04:50:08;97696.28;;;8.47;77.75
86204;BME280;76856;42.356;24.732;2024-03-25T04:52:34;97697.88;;;8.48;78.29
86204;BME280;76856;42.356;24.732;2024-03-25T04:55:00;97706.84;;;8.54;77.85
86204;BME280;76856;42.356;24.732;2024-03-25T04:57:25;97705.25;;;8.60;76.53
86204;BME280;76856;42.356;24.732;2024-03-25T04:59:52;97698.19;;;8.67;75.17
86204;BME280;76856;42.356;24.732;2024-03-25T05:02:17;97705.94;;;8.75;76.25
86204;BME280;76856;42.356;24.732;2024-03-25T05:04:43;97707.38;;;8.77;76.16
86204;BME280;76856;42.356;24.732;2024-03-25T05:07:09;97707.38;;;8.84;74.11
86204;BME280;76856;42.356;24.732;2024-03-25T05:09:35;97717.75;;;8.86;74.01
86204;BME280;76856;42.356;24.732;2024-03-25T05:12:01;97715.34;;;8.91;74.30
86204;BME280;76856;42.356;24.732;2024-03-25T05:14:27;97716.78;;;8.93;74.72
86204;BME280;76856;42.356;24.732;2024-03-25T05:16:52;97722.47;;;9.03;73.76
86204;BME280;76856;42.356;24.732;2024-03-25T05:19:18;97731.19;;;9.04;73.39
86204;BME280;76856;42.356;24.732;2024-03-25T05:21:44;97743.19;;;9.07;73.87
86204;BME280;76856;42.356;24.732;2024-03-25T05:24:10;97744.44;;;9.11;73.02
86204;BME280;76856;42.356;24.732;2024-03-25T05:26:35;97756.59;;;9.18;74.20
86204;BME280;76856;42.356;24.732;2024-03-25T05:29:01;97765.56;;;9.24;72.91
86204;BME280;76856;42.356;24.732;2024-03-25T05:31:26;97763.78;;;9.31;74.43
86204;BME280;76856;42.356;24.732;2024-03-25T05:33:53;97757.88;;;9.29;72.27
86204;BME280;76856;42.356;24.732;2024-03-25T05:36:18;97764.81;;;9.37;72.37
86204;BME280;76856;42.356;24.732;2024-03-25T05:38:44;97762.81;;;9.45;74.47
86204;BME280;76856;42.356;24.732;2024-03-25T05:41:10;97781.09;;;9.54;73.49
86204;BME280;76856;42.356;24.732;2024-03-25T05:43:36;97776.66;;;9.61;73.80
86204;BME280;76856;42.356;24.732;2024-03-25T05:46:02;97780.53;;;9.65;73.53
86204;BME280;76856;42.356;24.732;2024-03-25T05:48:28;97783.41;;;9.70;72.14
86204;BME280;76856;42.356;24.732;2024-03-25T05:51:06;97785.06;;;9.84;72.56
86204;BME280;76856;42.356;24.732;2024-03-25T05:53:35;97795.00;;;9.96;71.99
86204;BME280;76856;42.356;24.732;2024-03-25T05:56:01;97802.75;;;10.04;70.63
86204;BME280;76856;42.356;24.732;2024-03-25T05:58:27;97804.78;;;10.08;71.18
86204;BME280;76856;42.356;24.732;2024-03-25T06:00:53;97804.38;;;10.11;72.31
86204;BME280;76856;42.356;24.732;2024-03-25T06:03:19;97824.47;;;10.12;72.68
86204;BME280;76856;42.356;24.732;2024-03-25T06:05:45;97829.97;;;10.11;69.88
86204;BME280;76856;42.356;24.732;2024-03-25T06:08:10;97827.13;;;10.06;69.37
86204;BME280;76856;42.356;24.732;2024-03-25T06:10:45;97828.34;;;10.03;68.89
86204;BME280;76856;42.356;24.732;2024-03-25T06:13:11;97847.22;;;10.00;69.51
86204;BME280;76856;42.356;24.732;2024-03-25T06:15:37;97847.59;;;9.90;68.60
86204;BME280;76856;42.356;24.732;2024-03-25T06:18:02;97856.09;;;9.79;69.19
86204;BME280;76856;42.356;24.732;2024-03-25T06:20:28;97842.03;;;9.65;68.40
86204;BME280;76856;42.356;24.732;2024-03-25T06:22:54;97844.03;;;9.57;68.56
86204;BME280;76856;42.356;24.732;2024-03-25T06:25:19;97852.97;;;9.62;70.10
86204;BME280;76856;42.356;24.732;2024-03-25T06:27:45;97851.31;;;9.55;68.52
86204;BME280;76856;42.356;24.732;2024-03-25T06:30:11;97846.44;;;9.52;68.84
86204;BME280;76856;42.356;24.732;2024-03-25T06:32:56;97847.00;;;9.40;69.20
86204;BME280;76856;42.356;24.732;2024-03-25T06:35:42;97846.75;;;9.35;69.46
86204;BME280;76856;42.356;24.732;2024-03-25T06:38:08;97850.31;;;9.21;69.38
86204;BME280;76856;42.356;24.732;2024-03-25T06:40:34;97861.72;;;9.21;70.02
86204;BME280;76856;42.356;24.732;2024-03-25T06:43:00;97856.00;;;9.18;69.06
86204;BME280;76856;42.356;24.732;2024-03-25T06:45:25;97856.88;;;9.25;71.53
86204;BME280;76856;42.356;24.732;2024-03-25T06:47:51;97864.38;;;9.28;69.81
86204;BME280;76856;42.356;24.732;2024-03-25T06:50:16;97875.56;;;9.30;70.76
86204;BME280;76856;42.356;24.732;2024-03-25T06:52:42;97878.78;;;9.32;69.75
86204;BME280;76856;42.356;24.732;2024-03-25T06:55:07;97880.44;;;9.33;69.67
86204;BME280;76856;42.356;24.732;2024-03-25T06:57:33;97885.72;;;9.33;68.75
86204;BME280;76856;42.356;24.732;2024-03-25T06:59:59;97891.38;;;9.30;71.60
86204;BME280;76856;42.356;24.732;2024-03-25T07:02:25;97897.34;;;9.45;71.15
86204;BME280;76856;42.356;24.732;2024-03-25T07:04:50;97896.66;;;9.72;71.34
86204;BME280;76856;42.356;24.732;2024-03-25T07:07:16;97901.84;;;9.93;68.53
86204;BME280;76856;42.356;24.732;2024-03-25T07:09:42;97900.88;;;10.14;68.60
86204;BME280;76856;42.356;24.732;2024-03-25T07:12:07;97901.78;;;10.41;68.28
86204;BME280;76856;42.356;24.732;2024-03-25T07:14:33;97904.25;;;10.63;67.02
86204;BME280;76856;42.356;24.732;2024-03-25T07:16:59;97928.44;;;10.73;65.37
86204;BME280;76856;42.356;24.732;2024-03-25T07:19:25;97921.53;;;10.65;63.88
86204;BME280;76856;42.356;24.732;2024-03-25T07:21:50;97922.34;;;10.59;65.26
86204;BME280;76856;42.356;24.732;2024-03-25T07:24:16;97927.25;;;10.62;65.57
86204;BME280;76856;42.356;24.732;2024-03-25T07:26:41;97920.75;;;10.85;65.06
86204;BME280;76856;42.356;24.732;2024-03-25T07:29:07;97921.16;;;10.95;63.70
86204;BME280;76856;42.356;24.732;2024-03-25T07:31:33;97925.41;;;11.09;64.55
86204;BME280;76856;42.356;24.732;2024-03-25T07:33:58;97919.09;;;11.10;61.50
86204;BME280;76856;42.356;24.732;2024-03-25T07:36:24;97921.53;;;11.32;64.34
86204;BME280;76856;42.356;24.732;2024-03-25T07:38:49;97919.66;;;11.39;61.27
86204;BME280;76856;42.356;24.732;2024-03-25T07:41:15;97924.13;;;11.58;62.23
86204;BME280;76856;42.356;24.732;2024-03-25T07:43:41;97918.53;;;11.93;62.95
86204;BME280;76856;42.356;24.732;2024-03-25T07:46:06;97915.97;;;12.25;61.30
86204;BME280;76856;42.356;24.732;2024-03-25T07:48:32;97917.44;;;12.52;58.29
86204;BME280;76856;42.356;24.732;2024-03-25T07:50:57;97922.53;;;12.79;58.22
86204;BME280;76856;42.356;24.732;2024-03-25T07:53:23;97919.53;;;13.00;59.87
86204;BME280;76856;42.356;24.732;2024-03-25T07:55:49;97921.22;;;13.20;57.66
86204;BME280;76856;42.356;24.732;2024-03-25T07:58:16;97917.34;;;13.16;54.68
86204;BME280;76856;42.356;24.732;2024-03-25T08:00:42;97921.22;;;13.20;56.73
86204;BME280;76856;42.356;24.732;2024-03-25T08:03:07;97921.25;;;13.38;55.67
86204;BME280;76856;42.356;24.732;2024-03-25T08:05:33;97915.22;;;13.31;53.05
86204;BME280;76856;42.356;24.732;2024-03-25T08:07:59;97906.03;;;13.02;52.89
86204;BME280;76856;42.356;24.732;2024-03-25T08:10:24;97912.72;;;12.86;54.47
86204;BME280;76856;42.356;24.732;2024-03-25T08:12:50;97916.78;;;12.89;57.10
86204;BME280;76856;42.356;24.732;2024-03-25T08:15:16;97915.41;;;13.04;57.59
86204;BME280;76856;42.356;24.732;2024-03-25T08:17:42;97914.97;;;13.07;54.03
86204;BME280;76856;42.356;24.732;2024-03-25T08:20:08;97914.34;;;13.37;52.20
86204;BME280;76856;42.356;24.732;2024-03-25T08:22:34;97928.34;;;13.44;48.95
86204;BME280;76856;42.356;24.732;2024-03-25T08:24:59;97920.34;;;13.51;48.02
86204;BME280;76856;42.356;24.732;2024-03-25T08:27:25;97927.25;;;13.70;48.15
86204;BME280;76856;42.356;24.732;2024-03-25T08:29:50;97928.75;;;13.66;46.93
86204;BME280;76856;42.356;24.732;2024-03-25T08:32:18;97939.00;;;14.00;48.97
86204;BME280;76856;42.356;24.732;2024-03-25T08:34:44;97940.06;;;14.29;47.87
86204;BME280;76856;42.356;24.732;2024-03-25T08:37:10;97940.00;;;14.66;47.69
86204;BME280;76856;42.356;24.732;2024-03-25T08:39:36;97947.38;;;15.05;47.48
86204;BME280;76856;42.356;24.732;2024-03-25T08:42:02;97946.34;;;15.30;43.80
86204;BME280;76856;42.356;24.732;2024-03-25T08:44:27;97952.84;;;15.22;44.58
86204;BME280;76856;42.356;24.732;2024-03-25T08:46:53;97956.50;;;14.98;43.46
86204;BME280;76856;42.356;24.732;2024-03-25T08:49:18;97945.28;;;14.54;42.37
86204;BME280;76856;42.356;24.732;2024-03-25T08:51:44;97951.91;;;14.45;43.36
86204;BME280;76856;42.356;24.732;2024-03-25T08:54:09;97953.69;;;14.51;41.85
86204;BME280;76856;42.356;24.732;2024-03-25T08:56:35;97948.78;;;14.66;45.31
86204;BME280;76856;42.356;24.732;2024-03-25T08:59:00;97952.06;;;14.68;42.96
86204;BME280;76856;42.356;24.732;2024-03-25T09:01:26;97947.47;;;14.99;44.82
86204;BME280;76856;42.356;24.732;2024-03-25T09:03:52;97953.41;;;15.13;43.55
86204;BME280;76856;42.356;24.732;2024-03-25T09:06:18;97952.94;;;15.16;42.12
86204;BME280;76856;42.356;24.732;2024-03-25T09:08:43;97950.06;;;15.17;41.40
86204;BME280;76856;42.356;24.732;2024-03-25T09:11:28;97962.94;;;15.32;39.24
86204;BME280;76856;42.356;24.732;2024-03-25T09:13:54;97966.06;;;15.41;41.11
86204;BME280;76856;42.356;24.732;2024-03-25T09:16:19;97965.00;;;15.53;41.52
86204;BME280;76856;42.356;24.732;2024-03-25T09:18:45;97969.75;;;15.63;39.34
86204;BME280;76856;42.356;24.732;2024-03-25T09:21:11;97971.41;;;15.76;39.39
86204;BME280;76856;42.356;24.732;2024-03-25T09:23:36;97972.41;;;15.98;40.49
86204;BME280;76856;42.356;24.732;2024-03-25T09:26:02;97971.22;;;16.18;39.74
86204;BME280;76856;42.356;24.732;2024-03-25T09:28:27;97967.25;;;16.20;37.63
86204;BME280;76856;42.356;24.732;2024-03-25T09:30:53;97967.75;;;16.17;39.91
86204;BME280;76856;42.356;24.732;2024-03-25T09:33:19;97984.19;;;16.26;37.06
86204;BME280;76856;42.356;24.732;2024-03-25T09:35:44;97983.56;;;16.36;38.68
86204;BME280;76856;42.356;24.732;2024-03-25T09:38:10;97971.53;;;16.21;38.29
86204;BME280;76856;42.356;24.732;2024-03-25T09:40:39;97978.13;;;16.31;38.55
86204;BME280;76856;42.356;24.732;2024-03-25T09:43:16;97987.00;;;16.48;38.00
86204;BME280;76856;42.356;24.732;2024-03-25T09:45:47;97983.56;;;16.36;37.84
86204;BME280;76856;42.356;24.732;2024-03-25T09:48:15;97991.03;;;16.51;36.82
86204;BME280;76856;42.356;24.732;2024-03-25T09:50:43;97986.50;;;16.63;34.00
86204;BME280;76856;42.356;24.732;2024-03-25T09:53:09;98001.44;;;16.64;36.97
86204;BME280;76856;42.356;24.732;2024-03-25T09:55:35;97989.97;;;16.63;35.09
86204;BME280;76856;42.356;24.732;2024-03-25T09:58:02;97986.00;;;16.78;37.17
86204;BME280;76856;42.356;24.732;2024-03-25T10:00:30;97987.16;;;16.99;37.69
86204;BME280;76856;42.356;24.732;2024-03-25T10:02:55;98007.31;;;17.06;36.25
86204;BME280;76856;42.356;24.732;2024-03-25T10:05:21;98007.00;;;17.03;35.85
86204;BME280;76856;42.356;24.732;2024-03-25T10:07:47;98012.44;;;16.79;35.85
86204;BME280;76856;42.356;24.732;2024-03-25T10:10:13;98018.56;;;16.39;34.56
86204;BME280;76856;42.356;24.732;2024-03-25T10:12:38;98017.84;;;16.04;35.15
86204;BME280;76856;42.356;24.732;2024-03-25T10:15:04;98018.88;;;15.67;34.63
86204;BME280;76856;42.356;24.732;2024-03-25T10:17:31;98008.00;;;15.57;36.29
86204;BME280;76856;42.356;24.732;2024-03-25T10:19:57;98008.22;;;15.67;37.72
86204;BME280;76856;42.356;24.732;2024-03-25T10:22:23;98019.91;;;15.66;35.11
86204;BME280;76856;42.356;24.732;2024-03-25T10:24:49;98015.88;;;15.75;34.77
86204;BME280;76856;42.356;24.732;2024-03-25T10:27:22;98013.34;;;15.81;36.76
86204;BME280;76856;42.356;24.732;2024-03-25T10:29:52;98014.25;;;15.98;36.89
86204;BME280;76856;42.356;24.732;2024-03-25T10:32:18;98010.44;;;15.82;35.09
86204;BME280;76856;42.356;24.732;2024-03-25T10:34:44;98012.13;;;15.53;35.00
86204;BME280;76856;42.356;24.732;2024-03-25T10:37:11;98002.88;;;15.67;36.55
86204;BME280;76856;42.356;24.732;2024-03-25T10:39:50;98010.44;;;15.94;35.05
86204;BME280;76856;42.356;24.732;2024-03-25T10:42:20;98015.13;;;16.27;35.80
86204;BME280;76856;42.356;24.732;2024-03-25T10:44:47;98015.00;;;16.62;36.05
86204;BME280;76856;42.356;24.732;2024-03-25T10:47:25;98005.56;;;16.83;35.86
86204;BME280;76856;42.356;24.732;2024-03-25T10:49:58;98009.88;;;17.01;35.57
86204;BME280;76856;42.356;24.732;2024-03-25T10:52:26;98020.38;;;17.20;35.78
86204;BME280;76856;42.356;24.732;2024-03-25T10:54:52;98015.09;;;17.25;31.10
86204;BME280;76856;42.356;24.732;2024-03-25T10:57:20;98018.34;;;17.27;34.13
86204;BME280;76856;42.356;24.732;2024-03-25T10:59:46;98023.78;;;17.32;33.45
86204;BME280;76856;42.356;24.732;2024-03-25T11:02:12;98020.22;;;17.43;32.54
86204;BME280;76856;42.356;24.732;2024-03-25T11:04:41;98018.66;;;17.47;33.28
86204;BME280;76856;42.356;24.732;2024-03-25T11:07:13;98015.09;;;17.59;33.51
86204;BME280;76856;42.356;24.732;2024-03-25T11:09:39;98028.56;;;17.64;33.41
86204;BME280;76856;42.356;24.732;2024-03-25T11:12:06;98013.88;;;17.66;31.88
86204;BME280;76856;42.356;24.732;2024-03-25T11:14:33;98013.09;;;17.66;31.87
86204;BME280;76856;42.356;24.732;2024-03-25T11:16:59;98010.81;;;17.74;33.75
86204;BME280;76856;42.356;24.732;2024-03-25T11:19:27;98013.91;;;17.83;31.85
86204;BME280;76856;42.356;24.732;2024-03-25T11:21:53;98014.09;;;17.98;32.33
86204;BME280;76856;42.356;24.732;2024-03-25T11:24:28;98021.78;;;18.12;29.93
86204;BME280;76856;42.356;24.732;2024-03-25T11:26:55;98016.75;;;18.15;33.24
86204;BME280;76856;42.356;24.732;2024-03-25T11:29:20;98013.81;;;18.17;30.59
86204;BME280;76856;42.356;24.732;2024-03-25T11:31:49;98020.84;;;18.23;29.37
86204;BME280;76856;42.356;24.732;2024-03-25T11:34:18;98005.56;;;18.40;32.40
86204;BME280;76856;42.356;24.732;2024-03-25T11:36:44;98026.69;;;18.64;31.45
86204;BME280;76856;42.356;24.732;2024-03-25T11:39:09;98025.00;;;18.80;31.93
86204;BME280;76856;42.356;24.732;2024-03-25T11:41:42;98029.09;;;18.87;30.30
86204;BME280;76856;42.356;24.732;2024-03-25T11:44:09;98038.91;;;18.77;30.20
86204;BME280;76856;42.356;24.732;2024-03-25T11:46:38;98041.69;;;18.21;29.91
86204;BME280;76856;42.356;24.732;2024-03-25T11:49:11;98039.56;;;17.84;31.90
86204;BME280;76856;42.356;24.732;2024-03-25T11:51:37;98032.66;;;17.88;32.76
86204;BME280;76856;42.356;24.732;2024-03-25T11:54:06;98036.06;;;18.00;31.19
86204;BME280;76856;42.356;24.732;2024-03-25T11:56:32;98029.91;;;18.00;30.69
86204;BME280;76856;42.356;24.732;2024-03-25T11:59:01;98041.41;;;18.00;30.37
86204;BME280;76856;42.356;24.732;2024-03-25T12:01:28;98035.56;;;18.04;32.23
86204;BME280;76856;42.356;24.732;2024-03-25T12:03:54;98036.06;;;18.00;31.26
86204;BME280;76856;42.356;24.732;2024-03-25T12:06:20;98044.78;;;18.13;32.01
86204;BME280;76856;42.356;24.732;2024-03-25T12:08:45;98041.13;;;18.19;30.71
86204;BME280;76856;42.356;24.732;2024-03-25T12:11:31;98031.97;;;18.15;31.76
86204;BME280;76856;42.356;24.732;2024-03-25T12:13:58;98035.13;;;18.29;29.79
86204;BME280;76856;42.356;24.732;2024-03-25T12:16:24;98025.53;;;18.33;31.80
86204;BME280;76856;42.356;24.732;2024-03-25T12:18:50;98025.50;;;18.11;31.08
86204;BME280;76856;42.356;24.732;2024-03-25T12:21:17;98032.59;;;18.00;29.91
86204;BME280;76856;42.356;24.732;2024-03-25T12:23:43;98029.69;;;17.85;31.30
86204;BME280;76856;42.356;24.732;2024-03-25T12:26:09;98050.19;;;17.79;32.40
86204;BME280;76856;42.356;24.732;2024-03-25T12:28:34;98047.59;;;17.84;32.08
86204;BME280;76856;42.356;24.732;2024-03-25T12:31:07;98055.69;;;17.72;29.42
86204;BME280;76856;42.356;24.732;2024-03-25T12:33:43;98040.44;;;17.73;31.02
86204;BME280;76856;42.356;24.732;2024-03-25T12:36:12;98049.66;;;17.65;28.89
86204;BME280;76856;42.356;24.732;2024-03-25T12:38:38;98053.09;;;17.61;29.37
86204;BME280;76856;42.356;24.732;2024-03-25T12:41:12;98062.69;;;17.28;29.36
86204;BME280;76856;42.356;24.732;2024-03-25T12:43:45;98058.59;;;17.37;30.77
86204;BME280;76856;42.356;24.732;2024-03-25T12:46:11;98057.63;;;17.43;31.70
86204;BME280;76856;42.356;24.732;2024-03-25T12:48:37;98061.41;;;17.30;29.13